Tahlequah, OK

8:02 AM CST on December 10, 2016 (GMT -0600)
North Tahlequah | | Change Station

Elev 988 ft 35.97 °N, 94.97 °W | Updated 8 seconds ago

Overcast
Overcast
34.2 °F
Feels Like 29 °F
N
6.0
Wind Variable Wind from SE

Today
High -- | Low -- °F
--% Chance of Precip.
Yesterday
High -- | Low -- °F
Precip. -- in
Pressure 30.48 in
Visibility 10.0 miles
Clouds Overcast 5000 ft
Windchill 29 °F
Dew Point 19 °F
Humidity 54%
Rainfall 0.00 in
Snow Depth Not available.
7:19 AM 5:06 PM
Waxing Gibbous, 84% visible
METAR KMKO 101353Z AUTO 15008KT 10SM OVC050 02/M05 A3047 RMK AO2 SLP320 T00171050
Pressure 30.48 in
Visibility 10.0 miles
Clouds Overcast 5000 ft
Windchill 29 °F
Dew Point 19 °F
Humidity 54%
Rainfall 0.00 in
Snow Depth Not available.
7:19 AM 5:06 PM
Waxing Gibbous, 84% visible
METAR KMKO 101353Z AUTO 15008KT 10SM OVC050 02/M05 A3047 RMK AO2 SLP320 T00171050

10-Day Weather Forecast

Almanac

Astronomy

Dec. 10, 2016 Rise Set
Actual Time
Civil Twilight
Nautical Twilight
Astronomical Twilight
Moon
Length of Visible Light
Length of Day
Tomorrow will be .
, % of the Moon is Illuminated

Today's Extremes

State Highs State Lows

Community

WunderPhotos

Upload Photos

1,956,549 photos uploaded!

WunderBlog® & News

Nearby

Air Quality

  Air Quality AQ Index Pollutant
Not available.

Snow Depth

Station Depth Elevation

Earthquake Activity

City Distance Mag. Time & Date
Minimum magnitude displayed is 2.5.

Coastal Water Temperatures

Place Temperature

Stations

Nearby Weather Stations

Station Location Temp. Windchill Dew Point Humidity Wind Precip. Elev Updated Type
                   

Watches & Warnings

There are currently no watches in effect.